Time;durP1;ratioP1;P1;durP2;ratioP2;P2;SDS_P1;SDS_P2;PMS_P1;PMS_P2;Temp;Humidity;BMP_temperature;BMP_pressure;BME280_temperature;BME280_humidity;BME280_pressure;Samples;Min_cycle;Max_cycle;Signal;HPM_P1;HPM_P2
2022/10/23 00:03:06;;;;;;;44.60;16.98;;;;;;;;;;8367540;28;20059;-86
2022/10/23 00:07:09;;;;;;;51.92;17.80;;;;;;;;;;8367743;28;20045;-86
2022/10/23 00:11:14;;;;;;;42.60;15.35;;;;;;;;;;8349711;28;20149;-86
2022/10/23 00:15:21;;;;;;;54.42;19.92;;;;;;;;;;8367491;28;20179;-85
2022/10/23 00:19:23;;;;;;;54.47;20.58;;;;;;;;;;8367453;28;20128;-85
2022/10/23 00:23:25;;;;;;;56.15;21.15;;;;;;;;;;8353153;28;20041;-85
2022/10/23 00:27:28;;;;;;;56.92;19.65;;;;;;;;;;8337457;28;20048;-86
2022/10/23 00:31:32;;;;;;;56.00;19.50;;;;;;;;;;8353104;28;20045;-90
2022/10/23 00:35:35;;;;;;;64.38;22.35;;;;;;;;;;8361693;28;20051;-86
2022/10/23 00:39:37;;;;;;;52.15;20.40;;;;;;;;;;8341068;28;20046;-88
2022/10/23 00:44:07;;;;;;;56.47;20.33;;;;;;;;;;8334575;28;20049;-86
2022/10/23 00:48:11;;;;;;;56.35;19.77;;;;;;;;;;8333893;28;20408;-90
2022/10/23 00:52:14;;;;;;;54.58;19.73;;;;;;;;;;8333052;28;20084;-87
2022/10/23 00:56:17;;;;;;;48.35;18.80;;;;;;;;;;8332912;28;20053;-86
2022/10/23 01:00:22;;;;;;;49.20;20.15;;;;;;;;;;8333221;28;20557;-89
2022/10/23 01:04:28;;;;;;;47.95;19.80;;;;;;;;;;8319643;28;20045;-86
2022/10/23 01:08:37;;;;;;;48.67;20.83;;;;;;;;;;8365856;28;20128;-89
2022/10/23 01:12:46;;;;;;;51.40;21.60;;;;;;;;;;8365800;28;20051;-86
2022/10/23 01:16:56;;;;;;;49.67;20.55;;;;;;;;;;8365597;28;20459;-85
2022/10/23 01:21:05;;;;;;;46.55;20.38;;;;;;;;;;8359276;28;20053;-89
2022/10/23 01:25:22;;;;;;;50.20;21.52;;;;;;;;;;8331735;28;20045;-88
2022/10/23 01:29:31;;;;;;;49.47;20.63;;;;;;;;;;8332136;28;20084;-90
2022/10/23 01:33:38;;;;;;;53.03;20.80;;;;;;;;;;8332036;28;20133;-89
2022/10/23 01:37:44;;;;;;;54.90;22.30;;;;;;;;;;8325934;28;20045;-87
2022/10/23 01:41:50;;;;;;;51.78;21.00;;;;;;;;;;8328344;28;20041;-89
2022/10/23 01:45:58;;;;;;;53.25;21.83;;;;;;;;;;8330697;28;20037;-86
2022/10/23 01:50:02;;;;;;;55.10;22.65;;;;;;;;;;8331000;28;20124;-88
2022/10/23 01:54:09;;;;;;;48.65;21.88;;;;;;;;;;8329964;28;20144;-87
2022/10/23 01:58:12;;;;;;;57.97;23.35;;;;;;;;;;8327991;28;20038;-89
2022/10/23 02:02:18;;;;;;;52.92;21.70;;;;;;;;;;8328747;28;20508;-88
2022/10/23 02:06:21;;;;;;;48.30;20.38;;;;;;;;;;8330943;28;20041;-89
2022/10/23 02:10:28;;;;;;;46.42;19.80;;;;;;;;;;8331704;28;20116;-86
2022/10/23 02:14:40;;;;;;;47.03;20.83;;;;;;;;;;8326564;28;20405;-89
2022/10/23 02:18:51;;;;;;;43.28;18.75;;;;;;;;;;8328388;28;21035;-87
2022/10/23 02:22:59;;;;;;;50.45;19.73;;;;;;;;;;8323755;28;20045;-89
2022/10/23 02:27:08;;;;;;;44.28;18.40;;;;;;;;;;8328748;28;20409;-86
2022/10/23 02:31:16;;;;;;;45.72;19.23;;;;;;;;;;8328266;28;20047;-92
2022/10/23 02:35:22;;;;;;;48.03;19.38;;;;;;;;;;8323478;28;20092;-91
2022/10/23 02:39:28;;;;;;;50.40;21.08;;;;;;;;;;8316473;28;20049;-90
2022/10/23 02:43:37;;;;;;;50.67;20.20;;;;;;;;;;8328909;28;20378;-90
2022/10/23 02:47:51;;;;;;;65.50;23.40;;;;;;;;;;8322411;28;20042;-89
2022/10/23 02:52:03;;;;;;;93.05;31.35;;;;;;;;;;8329050;28;20045;-85
2022/10/23 02:56:14;;;;;;;158.80;55.67;;;;;;;;;;8330999;28;20128;-91
2022/10/23 03:00:20;;;;;;;111.55;35.03;;;;;;;;;;8326607;28;20034;-89
2022/10/23 03:04:24;;;;;;;139.98;47.22;;;;;;;;;;8322357;28;20080;-88
2022/10/23 03:08:28;;;;;;;118.57;35.50;;;;;;;;;;8338539;28;20796;-86
2022/10/23 03:12:31;;;;;;;116.97;41.28;;;;;;;;;;8353591;28;20403;-90
2022/10/23 03:16:33;;;;;;;100.10;40.05;;;;;;;;;;8362858;28;20497;-86
2022/10/23 03:20:36;;;;;;;107.75;42.95;;;;;;;;;;8359588;28;20056;-85
2022/10/23 03:24:40;;;;;;;67.32;31.48;;;;;;;;;;8354150;28;20049;-86
2022/10/23 03:28:42;;;;;;;78.78;31.80;;;;;;;;;;8356083;28;20045;-86
2022/10/23 03:32:44;;;;;;;70.80;23.83;;;;;;;;;;8336000;28;20382;-89
2022/10/23 03:36:47;;;;;;;68.72;30.55;;;;;;;;;;8336159;28;20129;-91
2022/10/23 03:40:50;;;;;;;54.95;23.33;;;;;;;;;;8323140;28;20053;-86
2022/10/23 03:44:53;;;;;;;59.17;25.65;;;;;;;;;;8369267;28;20044;-91
2022/10/23 03:48:57;;;;;;;57.20;20.70;;;;;;;;;;8369051;28;20044;-86
2022/10/23 03:53:00;;;;;;;56.97;23.10;;;;;;;;;;8368224;28;20542;-87
2022/10/23 03:57:04;;;;;;;53.92;21.88;;;;;;;;;;8369255;28;20500;-85
2022/10/23 04:01:06;;;;;;;58.17;20.15;;;;;;;;;;8368468;28;20037;-86
2022/10/23 04:05:09;;;;;;;101.43;39.70;;;;;;;;;;8368356;28;20049;-85
2022/10/23 04:09:11;;;;;;;104.65;29.77;;;;;;;;;;8367939;28;20068;-87
2022/10/23 04:13:15;;;;;;;110.60;28.65;;;;;;;;;;8367814;28;20056;-86
2022/10/23 04:17:18;;;;;;;105.60;28.85;;;;;;;;;;8367884;28;20044;-87
2022/10/23 04:21:20;;;;;;;222.05;28.55;;;;;;;;;;8358652;28;20041;-86
2022/10/23 04:25:22;;;;;;;121.35;30.65;;;;;;;;;;8362505;28;20499;-88
2022/10/23 04:29:30;;;;;;;130.95;29.17;;;;;;;;;;8367287;28;20045;-86
2022/10/23 04:33:32;;;;;;;134.40;31.40;;;;;;;;;;8341526;28;20045;-86
2022/10/23 04:37:35;;;;;;;125.85;28.42;;;;;;;;;;8335688;28;20046;-88
2022/10/23 04:41:37;;;;;;;119.28;31.48;;;;;;;;;;8358887;28;20477;-87
2022/10/23 04:45:41;;;;;;;131.02;30.67;;;;;;;;;;8320458;28;20050;-86
2022/10/23 04:49:43;;;;;;;144.05;31.10;;;;;;;;;;8365999;28;20128;-86
2022/10/23 04:53:46;;;;;;;121.07;29.25;;;;;;;;;;8366180;28;20049;-85
2022/10/23 04:57:48;;;;;;;109.03;27.20;;;;;;;;;;8366435;28;20090;-89
2022/10/23 05:01:52;;;;;;;108.10;27.80;;;;;;;;;;8366208;28;20484;-89
2022/10/23 05:05:56;;;;;;;101.82;27.80;;;;;;;;;;8366080;28;20124;-86
2022/10/23 05:09:59;;;;;;;92.75;24.00;;;;;;;;;;8323703;28;20086;-86
2022/10/23 05:14:01;;;;;;;86.38;25.88;;;;;;;;;;8365577;28;20051;-85
2022/10/23 05:18:11;;;;;;;71.00;22.50;;;;;;;;;;8337601;28;20041;-86
2022/10/23 05:22:15;;;;;;;79.28;24.95;;;;;;;;;;8334589;28;20081;-85
2022/10/23 05:26:17;;;;;;;67.07;22.67;;;;;;;;;;8350118;28;20048;-90
2022/10/23 05:30:19;;;;;;;77.90;23.60;;;;;;;;;;8349498;28;20127;-85
2022/10/23 05:34:26;;;;;;;64.78;23.45;;;;;;;;;;8365413;28;20049;-85
2022/10/23 05:38:32;;;;;;;77.65;24.17;;;;;;;;;;8333228;28;20128;-86
2022/10/23 05:42:35;;;;;;;75.25;24.25;;;;;;;;;;8322404;28;20037;-85
2022/10/23 05:46:41;;;;;;;63.30;22.90;;;;;;;;;;8319486;28;20045;-88
2022/10/23 05:50:45;;;;;;;76.25;22.50;;;;;;;;;;8326405;28;20048;-85
2022/10/23 05:54:47;;;;;;;66.95;23.65;;;;;;;;;;8327887;28;20749;-84
2022/10/23 05:58:50;;;;;;;65.85;22.92;;;;;;;;;;8329392;28;20107;-86
2022/10/23 06:02:52;;;;;;;75.15;25.30;;;;;;;;;;8327482;28;20482;-86
2022/10/23 06:06:56;;;;;;;82.00;24.92;;;;;;;;;;8333283;28;20049;-86
2022/10/23 06:10:59;;;;;;;68.38;23.52;;;;;;;;;;8322450;28;20133;-86
2022/10/23 06:15:01;;;;;;;68.53;23.48;;;;;;;;;;8327492;28;20161;-88
2022/10/23 06:19:04;;;;;;;61.53;22.08;;;;;;;;;;8328306;28;20496;-86
2022/10/23 06:23:09;;;;;;;55.60;21.23;;;;;;;;;;8328115;28;20046;-90
2022/10/23 06:27:11;;;;;;;53.55;21.15;;;;;;;;;;8328509;28;20424;-89
2022/10/23 06:31:17;;;;;;;50.55;19.20;;;;;;;;;;8328290;28;20428;-85
2022/10/23 06:35:20;;;;;;;57.65;21.98;;;;;;;;;;8328088;28;20124;-86
2022/10/23 06:39:24;;;;;;;46.40;19.73;;;;;;;;;;8327868;28;20408;-88
2022/10/23 06:43:26;;;;;;;41.67;19.15;;;;;;;;;;8321912;28;20486;-85
2022/10/23 06:47:29;;;;;;;44.05;18.63;;;;;;;;;;8342936;28;20045;-85
2022/10/23 06:51:31;;;;;;;35.30;16.65;;;;;;;;;;8353141;28;20048;-84
2022/10/23 06:55:35;;;;;;;41.30;18.27;;;;;;;;;;8312251;28;20076;-86
2022/10/23 06:59:37;;;;;;;30.42;16.40;;;;;;;;;;8348938;28;20060;-85
2022/10/23 07:03:40;;;;;;;31.70;17.23;;;;;;;;;;8351923;28;20049;-85
2022/10/23 07:07:42;;;;;;;34.67;16.67;;;;;;;;;;8343365;28;20048;-86
2022/10/23 07:11:53;;;;;;;33.00;16.08;;;;;;;;;;8322011;28;20046;-87
2022/10/23 07:21:18;;;;;;;40.22;16.52;;;;;;;;;;8278978;28;20062;-88
2022/10/23 07:26:09;;;;;;;43.28;17.08;;;;;;;;;;8326242;28;20152;-87
2022/10/23 07:30:19;;;;;;;36.30;16.77;;;;;;;;;;8306344;28;20421;-86
2022/10/23 07:34:27;;;;;;;40.72;18.52;;;;;;;;;;8344370;28;20386;-87
2022/10/23 07:38:31;;;;;;;34.67;16.77;;;;;;;;;;8336728;28;20228;-88
2022/10/23 07:42:33;;;;;;;36.83;16.17;;;;;;;;;;8323080;28;20042;-85
2022/10/23 07:46:40;;;;;;;33.53;16.50;;;;;;;;;;8310571;28;20513;-85
2022/10/23 07:50:42;;;;;;;35.80;19.38;;;;;;;;;;8332535;28;20045;-86
2022/10/23 07:54:45;;;;;;;26.70;13.95;;;;;;;;;;8333165;28;20065;-85
2022/10/23 07:58:47;;;;;;;23.30;12.90;;;;;;;;;;8324895;28;20083;-85
2022/10/23 08:02:51;;;;;;;19.75;10.82;;;;;;;;;;8316136;28;20092;-85
2022/10/23 08:06:54;;;;;;;21.30;11.82;;;;;;;;;;8308705;28;20077;-85
2022/10/23 08:10:57;;;;;;;21.15;10.52;;;;;;;;;;8327170;28;20410;-86
2022/10/23 08:14:59;;;;;;;14.93;9.50;;;;;;;;;;8323065;28;20042;-85
2022/10/23 08:19:12;;;;;;;17.02;8.10;;;;;;;;;;8331399;28;20045;-85
2022/10/23 08:23:17;;;;;;;12.80;7.75;;;;;;;;;;8325341;28;20040;-84
2022/10/23 08:27:30;;;;;;;16.27;8.05;;;;;;;;;;8331917;28;20498;-87
2022/10/23 08:31:33;;;;;;;17.92;8.68;;;;;;;;;;8330509;28;20072;-87
2022/10/23 08:35:38;;;;;;;16.15;9.07;;;;;;;;;;8318511;28;20741;-87
2022/10/23 08:39:41;;;;;;;21.73;9.18;;;;;;;;;;8329750;28;20059;-86
2022/10/23 08:43:47;;;;;;;18.95;10.50;;;;;;;;;;8309776;28;20045;-87
2022/10/23 08:47:54;;;;;;;14.20;8.65;;;;;;;;;;8322568;28;20412;-92
2022/10/23 08:52:02;;;;;;;22.00;13.50;;;;;;;;;;8320666;28;20041;-86
2022/10/23 08:56:09;;;;;;;19.40;10.35;;;;;;;;;;8323746;28;20095;-89
2022/10/23 09:00:16;;;;;;;16.38;9.52;;;;;;;;;;8323718;28;20478;-87
2022/10/23 09:04:18;;;;;;;14.75;8.40;;;;;;;;;;8330769;28;20041;-92
2022/10/23 09:08:36;;;;;;;15.85;9.13;;;;;;;;;;8333503;28;20041;-91
2022/10/23 09:12:39;;;;;;;13.02;8.55;;;;;;;;;;8334932;28;20045;-90
2022/10/23 09:16:53;;;;;;;16.73;7.60;;;;;;;;;;8334766;28;20516;-87
2022/10/23 09:20:55;;;;;;;19.98;8.73;;;;;;;;;;8332412;28;20041;-90
2022/10/23 09:24:59;;;;;;;14.60;8.05;;;;;;;;;;8325201;28;20478;-90
2022/10/23 09:29:17;;;;;;;14.25;7.55;;;;;;;;;;8342605;28;20056;-88
2022/10/23 09:33:22;;;;;;;12.63;7.80;;;;;;;;;;8353523;28;20095;-86
2022/10/23 09:37:26;;;;;;;17.20;9.40;;;;;;;;;;8363948;28;20056;-87
2022/10/23 09:41:34;;;;;;;11.73;7.03;;;;;;;;;;8364609;28;20676;-87
2022/10/23 09:45:37;;;;;;;11.63;6.50;;;;;;;;;;8364950;28;20043;-86
2022/10/23 09:49:47;;;;;;;11.60;6.97;;;;;;;;;;8350330;28;20049;-87
2022/10/23 09:53:53;;;;;;;16.25;6.93;;;;;;;;;;8356349;28;20513;-87
2022/10/23 09:57:57;;;;;;;11.85;7.28;;;;;;;;;;8331756;28;20045;-87
2022/10/23 10:02:02;;;;;;;16.17;9.73;;;;;;;;;;8331422;28;20113;-87
2022/10/23 10:06:05;;;;;;;15.02;8.43;;;;;;;;;;8331328;28;20053;-87
2022/10/23 10:10:14;;;;;;;15.00;9.00;;;;;;;;;;8331520;28;20412;-85
2022/10/23 10:14:37;;;;;;;19.80;10.65;;;;;;;;;;8331236;28;20049;-87
2022/10/23 10:18:43;;;;;;;14.10;8.90;;;;;;;;;;8331264;28;20485;-86
2022/10/23 10:22:52;;;;;;;13.70;7.28;;;;;;;;;;8336901;28;20067;-87
2022/10/23 10:27:01;;;;;;;11.25;6.43;;;;;;;;;;8363764;28;20386;-86
2022/10/23 10:31:13;;;;;;;13.98;6.28;;;;;;;;;;8363411;28;20068;-87
2022/10/23 10:35:22;;;;;;;;;;;;;;;;;;8363278;28;20132;-87
2022/10/23 10:39:38;;;;;;;8.90;5.32;;;;;;;;;;8363364;28;19967;-87
2022/10/23 10:43:47;;;;;;;8.75;5.47;;;;;;;;;;8363358;28;20071;-89
2022/10/23 10:48:03;;;;;;;9.65;5.22;;;;;;;;;;8362858;28;20045;-88
2022/10/23 10:52:15;;;;;;;8.75;5.22;;;;;;;;;;8362573;28;20052;-87
2022/10/23 10:56:20;;;;;;;9.82;4.55;;;;;;;;;;8362537;28;20052;-88
2022/10/23 11:00:23;;;;;;;8.57;5.13;;;;;;;;;;8362757;28;20124;-87
2022/10/23 11:04:35;;;;;;;9.38;4.60;;;;;;;;;;8362674;28;20049;-87
2022/10/23 11:08:38;;;;;;;;;;;;;;;;;;8362944;28;20135;-87
2022/10/23 11:12:44;;;;;;;10.02;4.60;;;;;;;;;;8362341;28;19982;-87
2022/10/23 11:16:50;;;;;;;9.52;4.35;;;;;;;;;;8362328;28;20073;-86
2022/10/23 11:21:06;;;;;;;9.45;4.43;;;;;;;;;;8357345;28;20131;-86
2022/10/23 11:25:39;;;;;;;8.13;4.68;;;;;;;;;;8330955;28;20409;-87
2022/10/23 11:29:57;;;;;;;6.78;4.53;;;;;;;;;;8340347;28;20049;-87
2022/10/23 11:34:16;;;;;;;7.47;4.78;;;;;;;;;;8362277;28;20055;-87
2022/10/23 11:38:26;;;;;;;9.32;4.80;;;;;;;;;;8362038;28;20115;-88
2022/10/23 11:42:32;;;;;;;8.27;4.35;;;;;;;;;;8359127;28;20120;-86
2022/10/23 11:46:37;;;;;;;8.30;4.72;;;;;;;;;;8324644;28;20451;-88
2022/10/23 11:50:52;;;;;;;12.88;5.28;;;;;;;;;;8332731;28;20053;-88
2022/10/23 11:55:04;;;;;;;9.38;4.72;;;;;;;;;;8315781;28;20049;-87
2022/10/23 11:59:25;;;;;;;9.63;4.68;;;;;;;;;;8326655;28;20508;-88
2022/10/23 12:03:36;;;;;;;9.05;4.97;;;;;;;;;;8326152;28;20382;-87
2022/10/23 12:07:41;;;;;;;7.43;4.55;;;;;;;;;;8330123;28;20141;-88
2022/10/23 12:11:50;;;;;;;6.85;4.60;;;;;;;;;;8323029;28;20052;-87
2022/10/23 12:15:54;;;;;;;10.13;4.63;;;;;;;;;;8328985;28;20053;-87
2022/10/23 12:20:18;;;;;;;9.70;5.65;;;;;;;;;;8327574;28;20408;-87
2022/10/23 12:24:38;;;;;;;9.00;4.47;;;;;;;;;;8310192;28;20059;-89
2022/10/23 12:28:50;;;;;;;9.38;6.00;;;;;;;;;;8335367;28;20079;-88
2022/10/23 12:33:21;;;;;;;8.18;4.30;;;;;;;;;;8324873;28;20054;-87
2022/10/23 12:37:51;;;;;;;6.90;3.90;;;;;;;;;;8322565;28;20075;-87
2022/10/23 12:41:53;;;;;;;7.75;4.30;;;;;;;;;;8326857;28;20652;-90
2022/10/23 12:46:03;;;;;;;9.05;4.38;;;;;;;;;;8324985;28;20038;-87
2022/10/23 12:50:18;;;;;;;7.30;4.32;;;;;;;;;;8312879;28;20064;-89
2022/10/23 12:54:22;;;;;;;7.93;4.72;;;;;;;;;;8310204;28;20495;-89
2022/10/23 12:58:28;;;;;;;11.75;5.45;;;;;;;;;;8290269;28;20061;-88
2022/10/23 13:02:33;;;;;;;10.35;5.28;;;;;;;;;;8295075;28;20056;-87
2022/10/23 13:06:36;;;;;;;14.20;6.45;;;;;;;;;;8295265;28;20050;-88
2022/10/23 13:10:39;;;;;;;11.38;7.00;;;;;;;;;;8295668;28;20056;-88
2022/10/23 13:14:54;;;;;;;10.73;5.80;;;;;;;;;;8294967;28;20076;-87
2022/10/23 13:18:58;;;;;;;8.57;5.50;;;;;;;;;;8295093;28;20516;-89
2022/10/23 13:23:09;;;;;;;8.80;5.20;;;;;;;;;;8295074;28;20077;-88
2022/10/23 13:27:26;;;;;;;11.48;5.78;;;;;;;;;;8293290;28;20049;-89
2022/10/23 13:31:31;;;;;;;15.65;5.78;;;;;;;;;;8295296;28;20104;-87
2022/10/23 13:35:36;;;;;;;13.05;6.28;;;;;;;;;;8302519;28;20101;-89
2022/10/23 13:39:39;;;;;;;10.27;6.00;;;;;;;;;;8294723;28;20053;-88
2022/10/23 13:43:42;;;;;;;8.55;4.75;;;;;;;;;;8294655;28;20409;-87
2022/10/23 13:47:45;;;;;;;10.43;4.68;;;;;;;;;;8294083;28;20498;-87
2022/10/23 13:51:51;;;;;;;9.80;5.55;;;;;;;;;;8287935;28;20076;-88
2022/10/23 13:55:54;;;;;;;15.23;5.72;;;;;;;;;;8285642;28;20057;-87
2022/10/23 13:59:57;;;;;;;11.07;5.30;;;;;;;;;;8294035;28;20410;-88
2022/10/23 14:04:00;;;;;;;13.85;5.88;;;;;;;;;;8293653;28;20073;-88
2022/10/23 14:08:04;;;;;;;7.63;4.63;;;;;;;;;;8288227;28;20413;-87
2022/10/23 14:12:06;;;;;;;9.95;5.53;;;;;;;;;;8319367;28;20087;-88
2022/10/23 14:16:11;;;;;;;9.77;4.95;;;;;;;;;;8329570;28;20140;-87
2022/10/23 14:20:14;;;;;;;8.82;4.93;;;;;;;;;;8330312;28;20055;-87
2022/10/23 14:24:18;;;;;;;6.78;4.35;;;;;;;;;;8301118;28;20120;-89
2022/10/23 14:28:21;;;;;;;8.80;5.50;;;;;;;;;;8286134;28;20088;-89
2022/10/23 14:32:24;;;;;;;17.23;8.68;;;;;;;;;;8301822;28;20133;-89
2022/10/23 14:36:26;;;;;;;12.68;7.50;;;;;;;;;;8295567;28;20413;-88
2022/10/23 14:40:31;;;;;;;9.48;4.93;;;;;;;;;;8296453;28;20052;-90
2022/10/23 14:44:33;;;;;;;9.57;5.22;;;;;;;;;;8275158;28;20050;-88
2022/10/23 14:48:36;;;;;;;12.45;5.38;;;;;;;;;;8287546;28;20048;-90
2022/10/23 14:52:39;;;;;;;8.43;5.32;;;;;;;;;;8296718;28;20049;-88
2022/10/23 14:56:44;;;;;;;11.30;6.53;;;;;;;;;;8309952;28;20160;-88
2022/10/23 15:00:58;;;;;;;11.73;5.57;;;;;;;;;;8315045;28;20046;-90
2022/10/23 15:05:00;;;;;;;8.88;5.90;;;;;;;;;;8314181;28;20064;-87
2022/10/23 15:09:04;;;;;;;14.73;6.43;;;;;;;;;;8290129;28;20037;-89
2022/10/23 15:13:08;;;;;;;10.15;6.55;;;;;;;;;;8322173;28;20495;-88
2022/10/23 15:17:11;;;;;;;10.93;6.28;;;;;;;;;;8329532;28;20075;-89
2022/10/23 15:21:15;;;;;;;9.95;6.07;;;;;;;;;;8332032;28;20163;-90
2022/10/23 15:25:18;;;;;;;12.38;6.60;;;;;;;;;;8333618;28;20096;-90
2022/10/23 15:29:23;;;;;;;10.25;6.72;;;;;;;;;;8314912;28;20067;-88
2022/10/23 15:33:26;;;;;;;13.88;6.82;;;;;;;;;;8313300;28;20041;-87
2022/10/23 15:37:29;;;;;;;11.98;6.78;;;;;;;;;;8320799;28;20501;-87
2022/10/23 15:41:33;;;;;;;13.02;7.63;;;;;;;;;;8336568;28;20064;-88
2022/10/23 15:45:38;;;;;;;12.68;7.60;;;;;;;;;;8336994;28;20045;-88
2022/10/23 15:49:40;;;;;;;12.70;7.18;;;;;;;;;;8333324;28;20057;-88
2022/10/23 15:53:43;;;;;;;15.35;9.60;;;;;;;;;;8329487;28;20081;-87
2022/10/23 15:57:45;;;;;;;14.15;8.77;;;;;;;;;;8323771;28;20045;-87
2022/10/23 16:01:50;;;;;;;13.70;8.38;;;;;;;;;;8348879;28;20061;-87
2022/10/23 16:05:52;;;;;;;15.10;7.95;;;;;;;;;;8339791;28;20100;-87
2022/10/23 16:09:55;;;;;;;16.38;9.30;;;;;;;;;;8323065;28;20528;-89
2022/10/23 16:13:59;;;;;;;18.30;10.15;;;;;;;;;;8326116;28;20133;-87
2022/10/23 16:18:03;;;;;;;22.92;11.60;;;;;;;;;;8342466;28;20064;-87
2022/10/23 16:22:07;;;;;;;18.50;9.90;;;;;;;;;;8362164;28;20626;-87
2022/10/23 16:26:10;;;;;;;22.65;11.23;;;;;;;;;;8320760;28;20918;-87
2022/10/23 16:30:15;;;;;;;26.17;13.85;;;;;;;;;;8344823;28;20045;-87
2022/10/23 16:34:22;;;;;;;41.17;19.23;;;;;;;;;;8345141;28;20056;-87
2022/10/23 16:38:26;;;;;;;42.30;21.08;;;;;;;;;;8322631;28;20497;-89
2022/10/23 16:42:29;;;;;;;28.85;15.52;;;;;;;;;;8344911;28;20060;-88
2022/10/23 16:46:32;;;;;;;54.05;27.23;;;;;;;;;;8314394;28;20049;-87
2022/10/23 16:50:39;;;;;;;52.28;25.35;;;;;;;;;;8329630;28;20079;-89
2022/10/23 16:54:43;;;;;;;44.38;22.88;;;;;;;;;;8344143;28;20508;-88
2022/10/23 16:58:46;;;;;;;41.45;19.23;;;;;;;;;;8344756;28;20512;-87
2022/10/23 17:02:49;;;;;;;43.00;21.75;;;;;;;;;;8327884;28;20132;-88
2022/10/23 17:06:54;;;;;;;53.38;25.70;;;;;;;;;;8331469;28;20507;-87
2022/10/23 17:11:05;;;;;;;51.90;26.30;;;;;;;;;;8333552;28;20411;-87
2022/10/23 17:15:10;;;;;;;40.08;20.30;;;;;;;;;;8323427;28;20127;-87
2022/10/23 17:19:17;;;;;;;30.40;15.63;;;;;;;;;;8337475;28;20052;-89
2022/10/23 17:23:27;;;;;;;44.95;25.25;;;;;;;;;;8348654;28;20096;-88
2022/10/23 17:27:43;;;;;;;82.57;37.40;;;;;;;;;;8359178;28;20382;-87
2022/10/23 17:32:09;;;;;;;168.38;77.68;;;;;;;;;;8346411;28;20397;-86
2022/10/23 17:36:21;;;;;;;78.78;36.92;;;;;;;;;;8334334;28;20072;-88
2022/10/23 17:40:29;;;;;;;57.80;27.50;;;;;;;;;;8328423;28;20479;-87
2022/10/23 17:44:40;;;;;;;50.00;24.05;;;;;;;;;;8325415;28;20047;-86
2022/10/23 17:48:53;;;;;;;50.40;25.13;;;;;;;;;;8342786;28;20046;-88
2022/10/23 17:53:06;;;;;;;78.88;41.90;;;;;;;;;;8357464;28;20044;-87
2022/10/23 17:57:25;;;;;;;58.17;30.00;;;;;;;;;;8345333;28;20071;-86
2022/10/23 18:01:47;;;;;;;46.22;24.60;;;;;;;;;;8344686;28;20069;-87
2022/10/23 18:06:14;;;;;;;52.47;26.58;;;;;;;;;;8359050;28;20052;-87
2022/10/23 18:10:34;;;;;;;35.97;15.85;;;;;;;;;;8359344;28;20048;-88
2022/10/23 18:15:04;;;;;;;31.10;16.17;;;;;;;;;;8339639;28;20056;-87
2022/10/23 18:19:20;;;;;;;55.17;26.20;;;;;;;;;;8335808;28;20122;-86
2022/10/23 18:23:48;;;;;;;35.00;18.85;;;;;;;;;;8347531;28;20064;-87
2022/10/23 18:28:05;;;;;;;38.10;18.52;;;;;;;;;;8318773;28;20045;-87
2022/10/23 18:32:34;;;;;;;67.55;28.73;;;;;;;;;;8323390;28;20830;-87
2022/10/23 18:37:09;;;;;;;83.70;35.15;;;;;;;;;;8326423;28;20405;-87
2022/10/23 18:41:45;;;;;;;135.18;57.17;;;;;;;;;;8331451;28;20037;-86
2022/10/23 18:45:57;;;;;;;50.63;22.70;;;;;;;;;;8331595;28;20055;-87
2022/10/23 18:50:23;;;;;;;48.53;20.15;;;;;;;;;;8295726;28;20072;-87
2022/10/23 18:54:36;;;;;;;39.38;18.35;;;;;;;;;;8323679;28;20416;-85
2022/10/23 18:58:41;;;;;;;90.50;36.35;;;;;;;;;;8323089;28;20042;-86
2022/10/23 19:02:46;;;;;;;118.97;37.67;;;;;;;;;;8312955;28;20072;-87
2022/10/23 19:06:51;;;;;;;150.20;55.90;;;;;;;;;;8336739;28;20053;-85
2022/10/23 19:10:54;;;;;;;132.68;48.80;;;;;;;;;;8331929;28;20475;-86
2022/10/23 19:14:59;;;;;;;51.22;21.58;;;;;;;;;;8335073;28;20094;-88
2022/10/23 19:19:06;;;;;;;45.55;19.65;;;;;;;;;;8325841;28;20440;-88
2022/10/23 19:23:10;;;;;;;48.10;21.35;;;;;;;;;;8328576;28;20056;-87
2022/10/23 19:27:13;;;;;;;50.92;23.73;;;;;;;;;;8325760;28;20196;-88
2022/10/23 19:31:16;;;;;;;40.67;18.48;;;;;;;;;;8326055;28;20095;-87
2022/10/23 19:35:21;;;;;;;53.00;23.60;;;;;;;;;;8326520;28;20064;-89
2022/10/23 19:39:27;;;;;;;88.05;35.83;;;;;;;;;;8326155;28;20045;-87
2022/10/23 19:43:30;;;;;;;71.03;28.67;;;;;;;;;;8325971;28;20043;-87
2022/10/23 19:47:33;;;;;;;53.45;22.60;;;;;;;;;;8326156;28;20045;-87
2022/10/23 19:51:36;;;;;;;58.50;22.58;;;;;;;;;;8323311;28;20045;-87
2022/10/23 19:55:40;;;;;;;53.67;20.13;;;;;;;;;;8323056;28;20057;-87
2022/10/23 19:59:48;;;;;;;48.83;20.67;;;;;;;;;;8324905;28;20045;-88
2022/10/23 20:03:53;;;;;;;53.97;21.13;;;;;;;;;;8340338;28;20056;-87
2022/10/23 20:07:56;;;;;;;63.50;24.08;;;;;;;;;;8364125;28;20045;-86
2022/10/23 20:12:01;;;;;;;49.28;22.58;;;;;;;;;;8365466;28;20112;-87
2022/10/23 20:16:03;;;;;;;58.78;23.48;;;;;;;;;;8333120;28;20519;-87
2022/10/23 20:20:07;;;;;;;65.45;25.83;;;;;;;;;;8332587;28;20049;-87
2022/10/23 20:24:11;;;;;;;56.00;25.48;;;;;;;;;;8331047;28;20041;-87
2022/10/23 20:28:15;;;;;;;67.78;23.75;;;;;;;;;;8331156;28;20061;-87
2022/10/23 20:32:18;;;;;;;65.00;22.95;;;;;;;;;;8333683;28;20540;-86
2022/10/23 20:36:24;;;;;;;64.93;23.23;;;;;;;;;;8330815;28;20046;-86
2022/10/23 20:40:26;;;;;;;52.85;22.13;;;;;;;;;;8341562;28;20120;-86
2022/10/23 20:44:31;;;;;;;60.63;21.60;;;;;;;;;;8366884;28;20064;-87
2022/10/23 20:48:35;;;;;;;56.25;21.40;;;;;;;;;;8366671;28;20074;-86
2022/10/23 20:52:38;;;;;;;57.50;20.50;;;;;;;;;;8366753;28;20114;-86
2022/10/23 20:56:40;;;;;;;51.13;19.33;;;;;;;;;;8366013;28;20505;-87
2022/10/23 21:00:45;;;;;;;63.05;22.40;;;;;;;;;;8339149;28;20065;-86
2022/10/23 21:04:49;;;;;;;48.88;19.40;;;;;;;;;;8366218;28;20108;-85
2022/10/23 21:08:54;;;;;;;53.47;19.30;;;;;;;;;;8324160;28;20555;-87
2022/10/23 21:12:57;;;;;;;56.35;18.60;;;;;;;;;;8366082;28;20124;-86
2022/10/23 21:17:01;;;;;;;51.25;18.70;;;;;;;;;;8338615;28;20055;-86
2022/10/23 21:21:03;;;;;;;57.20;19.23;;;;;;;;;;8332254;28;20489;-86
2022/10/23 21:25:07;;;;;;;53.58;19.55;;;;;;;;;;8358750;28;20082;-86
2022/10/23 21:29:13;;;;;;;51.80;18.27;;;;;;;;;;8347667;28;20452;-86
2022/10/23 21:33:18;;;;;;;51.53;18.60;;;;;;;;;;8332154;28;20049;-85
2022/10/23 21:37:20;;;;;;;52.20;19.17;;;;;;;;;;8331970;28;20057;-85
2022/10/23 21:41:25;;;;;;;58.42;22.13;;;;;;;;;;8332084;28;20041;-86
2022/10/23 21:45:27;;;;;;;63.53;20.42;;;;;;;;;;8329484;28;20059;-87
2022/10/23 21:49:32;;;;;;;64.68;21.10;;;;;;;;;;8364754;28;20124;-86
2022/10/23 21:53:34;;;;;;;72.25;20.38;;;;;;;;;;8342389;28;20405;-87
2022/10/23 21:57:36;;;;;;;58.55;20.52;;;;;;;;;;8331610;28;20409;-86
2022/10/23 22:01:39;;;;;;;61.78;18.52;;;;;;;;;;8330349;28;20046;-86
2022/10/23 22:05:43;;;;;;;63.10;20.77;;;;;;;;;;8348577;28;20382;-87
2022/10/23 22:09:46;;;;;;;64.03;19.48;;;;;;;;;;8339805;28;20397;-86
2022/10/23 22:13:49;;;;;;;55.92;18.05;;;;;;;;;;8336169;28;20041;-87
2022/10/23 22:17:51;;;;;;;55.22;18.05;;;;;;;;;;8350108;28;20041;-86
2022/10/23 22:21:55;;;;;;;68.13;19.77;;;;;;;;;;8350034;28;20482;-86
2022/10/23 22:25:58;;;;;;;69.68;20.88;;;;;;;;;;8349587;28;20098;-86
2022/10/23 22:30:02;;;;;;;61.33;18.90;;;;;;;;;;8362869;28;20052;-86
2022/10/23 22:34:07;;;;;;;58.83;19.30;;;;;;;;;;8363334;28;20052;-86
2022/10/23 22:38:11;;;;;;;68.35;21.33;;;;;;;;;;8363567;28;20110;-85
2022/10/23 22:42:13;;;;;;;81.57;22.33;;;;;;;;;;8363347;28;20056;-86
2022/10/23 22:46:17;;;;;;;71.97;21.33;;;;;;;;;;8335201;28;20045;-85
2022/10/23 22:50:20;;;;;;;65.15;20.77;;;;;;;;;;8363038;28;20552;-87
2022/10/23 22:54:24;;;;;;;66.93;22.75;;;;;;;;;;8334855;28;20576;-87
2022/10/23 22:58:26;;;;;;;79.95;22.40;;;;;;;;;;8356763;28;20472;-85
2022/10/23 23:02:29;;;;;;;70.80;22.20;;;;;;;;;;8329734;28;20104;-86
2022/10/23 23:06:33;;;;;;;71.55;22.15;;;;;;;;;;8315578;28;20117;-87
2022/10/23 23:10:38;;;;;;;75.72;22.23;;;;;;;;;;8352390;28;20067;-85
2022/10/23 23:14:41;;;;;;;78.50;21.70;;;;;;;;;;8362388;28;20544;-85
2022/10/23 23:18:43;;;;;;;76.50;22.20;;;;;;;;;;8362372;28;20079;-86
2022/10/23 23:22:46;;;;;;;84.15;23.13;;;;;;;;;;8344166;28;20049;-87
2022/10/23 23:26:50;;;;;;;86.45;23.45;;;;;;;;;;8362662;28;20053;-85
2022/10/23 23:31:03;;;;;;;84.03;24.05;;;;;;;;;;8355773;28;20521;-85
2022/10/23 23:35:06;;;;;;;77.75;21.65;;;;;;;;;;8344886;28;20071;-86
2022/10/23 23:39:09;;;;;;;63.70;21.92;;;;;;;;;;8362076;28;20491;-85
2022/10/23 23:43:13;;;;;;;78.80;23.13;;;;;;;;;;8366993;28;20416;-86
2022/10/23 23:47:16;;;;;;;76.82;23.05;;;;;;;;;;8368654;28;20108;-86
2022/10/23 23:51:21;;;;;;;74.90;22.38;;;;;;;;;;8368497;28;20055;-85
2022/10/23 23:55:24;;;;;;;76.75;23.55;;;;;;;;;;8368366;28;20041;-85
2022/10/23 23:59:28;;;;;;;75.65;22.30;;;;;;;;;;8366947;28;20045;-85
